Time;durP1;ratioP1;P1;durP2;ratioP2;P2;SDS_P1;SDS_P2;PMS_P1;PMS_P2;Temp;Humidity;BMP_temperature;BMP_pressure;BME280_temperature;BME280_humidity;BME280_pressure;Samples;Min_cycle;Max_cycle;Signal;HPM_P1;HPM_P2
2024/01/05 00:00:26;;;;;;;;;;;25.20;99.90;;;;;;5115351;28;20289;-71
2024/01/05 00:02:54;;;;;;;;;;;25.50;99.90;;;;;;5115402;28;19915;-66
2024/01/05 00:05:21;;;;;;;;;;;25.70;99.90;;;;;;5115177;28;19908;-65
2024/01/05 00:07:48;;;;;;;;;;;25.70;99.90;;;;;;5115413;28;19911;-69
2024/01/05 00:10:14;;;;;;;;;;;25.80;99.90;;;;;;5115686;28;19907;-69
2024/01/05 00:12:41;;;;;;;;;;;25.70;99.90;;;;;;5114769;28;19907;-67
2024/01/05 00:15:08;;;;;;;;;;;25.80;99.90;;;;;;5115189;28;20385;-65
2024/01/05 00:17:34;;;;;;;;;;;25.90;99.90;;;;;;5115134;28;19908;-70
2024/01/05 00:20:02;;;;;;;;;;;25.80;99.90;;;;;;5114518;28;19915;-67
2024/01/05 00:22:28;;;;;;;;;;;25.80;99.90;;;;;;5115122;28;19916;-70
2024/01/05 00:24:55;;;;;;;;;;;25.90;99.90;;;;;;5115200;28;19907;-65
2024/01/05 00:27:21;;;;;;;;;;;25.90;99.90;;;;;;5115188;28;20361;-71
2024/01/05 00:29:48;;;;;;;;;;;26.00;99.90;;;;;;5115032;28;19907;-67
2024/01/05 00:32:15;;;;;;;;;;;26.10;99.90;;;;;;5115268;28;19915;-72
2024/01/05 00:34:41;;;;;;;;;;;26.40;99.90;;;;;;5114971;28;19931;-67
2024/01/05 00:37:08;;;;;;;;;;;26.50;99.90;;;;;;5114806;28;20275;-69
2024/01/05 00:39:34;;;;;;;;;;;26.70;99.90;;;;;;5115044;28;19908;-67
2024/01/05 00:42:02;;;;;;;;;;;26.90;99.50;;;;;;5114780;28;19939;-68
2024/01/05 00:44:29;;;;;;;;;;;26.90;99.60;;;;;;5114707;28;20368;-67
2024/01/05 00:46:55;;;;;;;;;;;27.00;99.30;;;;;;5114896;28;19907;-68
2024/01/05 00:49:22;;;;;;;;;;;27.10;99.50;;;;;;5114407;28;19915;-67
2024/01/05 00:51:48;;;;;;;;;;;27.10;99.20;;;;;;5114707;28;19915;-64
2024/01/05 00:54:15;;;;;;;;;;;27.10;98.80;;;;;;5114760;28;19915;-65
2024/01/05 00:56:42;;;;;;;;;;;27.20;98.80;;;;;;5114596;28;19912;-66
2024/01/05 00:59:08;;;;;;;;;;;27.40;98.90;;;;;;5114579;28;19912;-70
2024/01/05 01:01:35;;;;;;;;;;;27.10;98.60;;;;;;5114318;28;19950;-67
2024/01/05 01:04:05;;;;;;;;;;;26.90;99.20;;;;;;5113579;28;20459;-67
2024/01/05 01:06:32;;;;;;;;;;;26.70;99.10;;;;;;5114287;28;19920;-68
2024/01/05 01:08:58;;;;;;;;;;;26.60;99.30;;;;;;5114235;28;19911;-70
2024/01/05 01:11:25;;;;;;;;;;;26.70;99.40;;;;;;5114291;28;19908;-64
2024/01/05 01:13:52;;;;;;;;;;;26.80;99.20;;;;;;5114085;28;19951;-71
2024/01/05 01:16:18;;;;;;;;;;;26.70;99.30;;;;;;5114416;28;20581;-66
2024/01/05 01:18:45;;;;;;;;;;;26.80;99.80;;;;;;5114426;28;20344;-70
2024/01/05 01:21:12;;;;;;;;;;;27.00;99.70;;;;;;5113844;28;19929;-67
2024/01/05 01:23:38;;;;;;;;;;;27.00;99.20;;;;;;5114060;28;19908;-66
2024/01/05 01:26:05;;;;;;;;;;;27.10;99.10;;;;;;5114054;28;20288;-71
2024/01/05 01:28:31;;;;;;;;;;;27.00;99.00;;;;;;5113668;28;19907;-66
2024/01/05 01:30:58;;;;;;;;;;;27.20;99.00;;;;;;5113863;28;19952;-66
2024/01/05 01:33:25;;;;;;;;;;;27.00;98.50;;;;;;5113579;28;19904;-68
2024/01/05 01:35:52;;;;;;;;;;;27.00;98.70;;;;;;5113891;28;20238;-67
2024/01/05 01:38:18;;;;;;;;;;;27.00;98.60;;;;;;5113866;28;19915;-67
2024/01/05 01:40:49;;;;;;;;;;;26.80;98.90;;;;;;5113896;28;19986;-68
2024/01/05 01:43:20;;;;;;;;;;;26.70;99.20;;;;;;5113411;28;19947;-70
2024/01/05 01:45:47;;;;;;;;;;;26.70;99.70;;;;;;5113585;28;19915;-73
2024/01/05 01:48:14;;;;;;;;;;;26.90;99.40;;;;;;5113656;28;20386;-69
2024/01/05 01:50:41;;;;;;;;;;;26.90;98.80;;;;;;5113565;28;19911;-67
2024/01/05 01:53:08;;;;;;;;;;;27.10;98.50;;;;;;5095280;28;20018;-71
2024/01/05 01:55:35;;;;;;;;;;;27.10;98.90;;;;;;5113384;28;20420;-71
2024/01/05 01:58:02;;;;;;;;;;;27.40;98.50;;;;;;5113314;28;20010;-71
2024/01/05 02:00:29;;;;;;;;;;;27.60;98.30;;;;;;5113544;28;19921;-68
2024/01/05 02:02:56;;;;;;;;;;;27.80;98.30;;;;;;5113429;28;19998;-69
2024/01/05 02:05:23;;;;;;;;;;;28.00;97.90;;;;;;5113454;28;19993;-66
2024/01/05 02:07:50;;;;;;;;;;;28.00;97.90;;;;;;5113526;28;19915;-67
2024/01/05 02:10:20;;;;;;;;;;;28.10;97.50;;;;;;5112811;28;20279;-73
2024/01/05 02:12:47;;;;;;;;;;;28.20;97.20;;;;;;5113160;28;19935;-67
2024/01/05 02:15:13;;;;;;;;;;;28.50;97.00;;;;;;5113125;28;19951;-69
2024/01/05 02:17:41;;;;;;;;;;;28.90;97.10;;;;;;5113341;28;19970;-66
2024/01/05 02:20:08;;;;;;;;;;;29.00;96.10;;;;;;5113380;28;19965;-73
2024/01/05 02:22:36;;;;;;;;;;;29.10;95.40;;;;;;5112965;28;19923;-67
2024/01/05 02:25:02;;;;;;;;;;;29.10;95.40;;;;;;5113279;28;19907;-72
2024/01/05 02:27:29;;;;;;;;;;;29.20;94.70;;;;;;5113072;28;19911;-67
2024/01/05 02:29:56;;;;;;;;;;;29.00;94.60;;;;;;5113257;28;20371;-70
2024/01/05 02:32:23;;;;;;;;;;;29.00;94.70;;;;;;5094916;28;19908;-69
2024/01/05 02:34:50;;;;;;;;;;;28.80;94.60;;;;;;5113141;28;19907;-71
2024/01/05 02:37:17;;;;;;;;;;;28.80;95.00;;;;;;5113004;28;19908;-69
2024/01/05 02:39:43;;;;;;;;;;;28.90;95.20;;;;;;5112954;28;19919;-68
2024/01/05 02:42:10;;;;;;;;;;;28.80;94.10;;;;;;5112891;28;19959;-72
2024/01/05 02:44:37;;;;;;;;;;;28.90;94.30;;;;;;5112974;28;19934;-72
2024/01/05 02:47:04;;;;;;;;;;;28.80;94.60;;;;;;5112908;28;19908;-71
2024/01/05 02:49:30;;;;;;;;;;;28.60;94.90;;;;;;5094615;28;20298;-70
2024/01/05 02:51:57;;;;;;;;;;;28.30;94.90;;;;;;5112733;28;19908;-72
2024/01/05 02:54:24;;;;;;;;;;;28.20;95.20;;;;;;5112889;28;19934;-67
2024/01/05 02:56:51;;;;;;;;;;;28.00;95.30;;;;;;5113016;28;20337;-73
2024/01/05 02:59:18;;;;;;;;;;;27.70;95.70;;;;;;5112651;28;19961;-69
2024/01/05 03:01:47;;;;;;;;;;;27.60;96.30;;;;;;5112713;28;19950;-71
2024/01/05 03:04:14;;;;;;;;;;;27.30;97.10;;;;;;5112902;28;19912;-73
2024/01/05 03:06:41;;;;;;;;;;;27.40;96.70;;;;;;5112467;28;19998;-75
2024/01/05 03:09:08;;;;;;;;;;;27.60;96.40;;;;;;5094649;28;20417;-72
2024/01/05 03:11:37;;;;;;;;;;;28.00;96.00;;;;;;5112903;28;20002;-72
2024/01/05 03:14:04;;;;;;;;;;;28.50;96.00;;;;;;5112706;28;19920;-65
2024/01/05 03:16:30;;;;;;;;;;;29.00;95.00;;;;;;5112667;28;19973;-72
2024/01/05 03:18:57;;;;;;;;;;;29.40;94.80;;;;;;5112763;28;20006;-70
2024/01/05 03:21:24;;;;;;;;;;;29.80;94.30;;;;;;5112653;28;19916;-72
2024/01/05 03:23:50;;;;;;;;;;;29.70;94.30;;;;;;5116305;28;19919;-74
2024/01/05 03:26:17;;;;;;;;;;;30.00;94.70;;;;;;5116817;28;19908;-71
2024/01/05 03:28:44;;;;;;;;;;;31.00;93.10;;;;;;5116668;28;19965;-67
2024/01/05 03:31:11;;;;;;;;;;;31.70;91.60;;;;;;5116450;28;19908;-71
2024/01/05 03:33:39;;;;;;;;;;;32.50;91.20;;;;;;5116304;28;19930;-66
2024/01/05 03:36:06;;;;;;;;;;;32.90;90.10;;;;;;5116111;28;19946;-65
2024/01/05 03:38:32;;;;;;;;;;;32.30;90.50;;;;;;5116296;28;20380;-66
2024/01/05 03:40:59;;;;;;;;;;;32.00;90.60;;;;;;5116373;28;19908;-66
2024/01/05 03:43:26;;;;;;;;;;;31.70;91.40;;;;;;5116308;28;19923;-67
2024/01/05 03:45:52;;;;;;;;;;;31.40;91.20;;;;;;5116194;28;19908;-65
2024/01/05 03:48:19;;;;;;;;;;;31.30;91.10;;;;;;5115957;28;20452;-66
2024/01/05 03:50:45;;;;;;;;;;;31.00;91.00;;;;;;5115758;28;20383;-66
2024/01/05 03:53:12;;;;;;;;;;;30.80;91.60;;;;;;5115771;28;19908;-66
2024/01/05 03:55:39;;;;;;;;;;;30.40;91.20;;;;;;5115872;28;20388;-65
2024/01/05 03:58:06;;;;;;;;;;;30.10;91.00;;;;;;5115958;28;19957;-66
2024/01/05 04:00:33;;;;;;;;;;;29.90;91.40;;;;;;5115709;28;19919;-66
2024/01/05 04:02:59;;;;;;;;;;;29.40;92.20;;;;;;5115460;28;19923;-68
2024/01/05 04:05:26;;;;;;;;;;;29.20;92.40;;;;;;5115676;28;19911;-66
2024/01/05 04:07:53;;;;;;;;;;;29.00;92.70;;;;;;5115679;28;19947;-70
2024/01/05 04:10:19;;;;;;;;;;;29.10;92.70;;;;;;5115802;28;20374;-66
2024/01/05 04:12:46;;;;;;;;;;;29.30;93.30;;;;;;5115474;28;19908;-66
2024/01/05 04:15:13;;;;;;;;;;;30.00;92.10;;;;;;5115471;28;19915;-66
2024/01/05 04:17:39;;;;;;;;;;;31.20;90.60;;;;;;5115136;28;19960;-65
2024/01/05 04:20:06;;;;;;;;;;;31.90;90.50;;;;;;5115388;28;19930;-65
2024/01/05 04:22:33;;;;;;;;;;;33.10;87.50;;;;;;5115249;28;19939;-67
2024/01/05 04:24:59;;;;;;;;;;;34.20;85.80;;;;;;5097218;28;20249;-67
2024/01/05 04:27:26;;;;;;;;;;;34.70;86.70;;;;;;5115271;28;20415;-70
2024/01/05 04:29:52;;;;;;;;;;;35.40;83.80;;;;;;5115198;28;19949;-66
2024/01/05 04:32:19;;;;;;;;;;;35.60;80.50;;;;;;5115002;28;20321;-67
2024/01/05 04:34:46;;;;;;;;;;;35.00;80.30;;;;;;5114503;28;20306;-68
2024/01/05 04:37:12;;;;;;;;;;;34.90;81.00;;;;;;5114827;28;19915;-66
2024/01/05 04:39:40;;;;;;;;;;;34.60;81.00;;;;;;5115140;28;19914;-68
2024/01/05 04:42:06;;;;;;;;;;;34.40;80.40;;;;;;5114908;28;20002;-71
2024/01/05 04:44:33;;;;;;;;;;;34.10;81.10;;;;;;5114713;28;19911;-71
2024/01/05 04:46:59;;;;;;;;;;;33.20;83.30;;;;;;5114788;28;19945;-73
2024/01/05 04:49:26;;;;;;;;;;;33.20;85.10;;;;;;5114632;28;19968;-66
2024/01/05 04:51:53;;;;;;;;;;;33.20;83.80;;;;;;5114374;28;19908;-67
2024/01/05 04:54:19;;;;;;;;;;;33.90;82.60;;;;;;5114572;28;19923;-67
2024/01/05 04:56:46;;;;;;;;;;;34.60;81.30;;;;;;5114656;28;19954;-70
2024/01/05 04:59:12;;;;;;;;;;;35.30;79.70;;;;;;5114393;28;19907;-68
2024/01/05 05:01:39;;;;;;;;;;;36.10;78.10;;;;;;5114462;28;19934;-76
2024/01/05 05:04:06;;;;;;;;;;;35.50;79.60;;;;;;5114504;28;19915;-70
2024/01/05 05:06:32;;;;;;;;;;;35.40;78.40;;;;;;5114451;28;19915;-68
2024/01/05 05:08:59;;;;;;;;;;;35.30;79.60;;;;;;5114524;28;19908;-65
2024/01/05 05:11:26;;;;;;;;;;;35.50;78.10;;;;;;5114310;28;19915;-66
2024/01/05 05:13:52;;;;;;;;;;;35.40;78.40;;;;;;5114202;28;19908;-65
2024/01/05 05:16:19;;;;;;;;;;;35.50;77.60;;;;;;5114418;28;19908;-65
2024/01/05 05:18:47;;;;;;;;;;;35.00;77.80;;;;;;5114176;28;19908;-66
2024/01/05 05:21:13;;;;;;;;;;;34.80;78.40;;;;;;5114107;28;19919;-67
2024/01/05 05:23:40;;;;;;;;;;;34.30;77.10;;;;;;5114048;28;20409;-66
2024/01/05 05:26:07;;;;;;;;;;;33.10;78.80;;;;;;5114068;28;19908;-73
2024/01/05 05:28:33;;;;;;;;;;;32.60;80.30;;;;;;5114232;28;20389;-66
2024/01/05 05:31:00;;;;;;;;;;;32.70;81.60;;;;;;5113814;28;19907;-66
2024/01/05 05:33:27;;;;;;;;;;;33.30;81.80;;;;;;5114246;28;19912;-66
2024/01/05 05:35:53;;;;;;;;;;;33.40;79.60;;;;;;5113931;28;20360;-67
2024/01/05 05:38:20;;;;;;;;;;;34.30;77.40;;;;;;5113900;28;19915;-69
2024/01/05 05:40:46;;;;;;;;;;;34.80;76.90;;;;;;5113661;28;19914;-71
2024/01/05 05:43:13;;;;;;;;;;;35.10;75.30;;;;;;5113723;28;19942;-66
2024/01/05 05:45:41;;;;;;;;;;;35.30;74.30;;;;;;5113014;28;19914;-67
2024/01/05 05:48:07;;;;;;;;;;;35.50;74.00;;;;;;5114061;28;19964;-67
2024/01/05 05:50:34;;;;;;;;;;;35.50;73.70;;;;;;5113681;28;19997;-64
2024/01/05 05:53:00;;;;;;;;;;;35.40;74.10;;;;;;5113365;28;19915;-66
2024/01/05 05:55:27;;;;;;;;;;;34.80;73.70;;;;;;5113285;28;19919;-67
2024/01/05 05:57:54;;;;;;;;;;;34.20;74.80;;;;;;5113668;28;19912;-65
2024/01/05 06:00:20;;;;;;;;;;;33.90;75.80;;;;;;5113438;28;19907;-65
2024/01/05 06:02:47;;;;;;;;;;;33.30;76.30;;;;;;5113236;28;19923;-69
2024/01/05 06:05:14;;;;;;;;;;;32.70;76.90;;;;;;5113390;28;19915;-67
2024/01/05 06:07:40;;;;;;;;;;;32.00;78.10;;;;;;5095013;28;19947;-66
2024/01/05 06:10:07;;;;;;;;;;;31.50;80.00;;;;;;5113441;28;20007;-66
2024/01/05 06:12:34;;;;;;;;;;;30.90;81.00;;;;;;5113531;28;19915;-65
2024/01/05 06:15:01;;;;;;;;;;;30.70;83.40;;;;;;5095079;28;19953;-71
2024/01/05 06:17:27;;;;;;;;;;;30.50;84.00;;;;;;5113312;28;19907;-67
2024/01/05 06:19:54;;;;;;;;;;;30.10;83.20;;;;;;5113376;28;19914;-66
2024/01/05 06:22:21;;;;;;;;;;;29.60;84.20;;;;;;5113092;28;19923;-66
2024/01/05 06:24:47;;;;;;;;;;;29.60;85.30;;;;;;5113173;28;20356;-65
2024/01/05 06:27:14;;;;;;;;;;;29.50;85.30;;;;;;5113071;28;19912;-69
2024/01/05 06:29:40;;;;;;;;;;;29.40;85.00;;;;;;5113360;28;19907;-70
2024/01/05 06:32:07;;;;;;;;;;;29.40;85.30;;;;;;5113479;28;19908;-70
2024/01/05 06:34:34;;;;;;;;;;;29.20;86.90;;;;;;5113540;28;19908;-71
2024/01/05 06:37:00;;;;;;;;;;;29.30;86.40;;;;;;5113154;28;20722;-65
2024/01/05 06:39:27;;;;;;;;;;;29.10;87.50;;;;;;5112909;28;19908;-64
2024/01/05 06:41:53;;;;;;;;;;;28.90;86.80;;;;;;5112875;28;20004;-65
2024/01/05 06:44:20;;;;;;;;;;;28.80;87.20;;;;;;5112957;28;19992;-71
2024/01/05 06:46:47;;;;;;;;;;;28.70;88.30;;;;;;5094680;28;19908;-67
2024/01/05 06:49:13;;;;;;;;;;;28.80;87.40;;;;;;5112963;28;20271;-67
2024/01/05 06:51:40;;;;;;;;;;;28.90;87.60;;;;;;5094682;28;20364;-68
2024/01/05 06:54:07;;;;;;;;;;;28.50;88.00;;;;;;5112821;28;20010;-65
2024/01/05 06:56:34;;;;;;;;;;;28.40;87.80;;;;;;5113496;28;19968;-66
2024/01/05 06:59:04;;;;;;;;;;;28.40;88.40;;;;;;5116878;28;19919;-69
2024/01/05 07:01:33;;;;;;;;;;;28.40;88.20;;;;;;5116870;28;20007;-69
2024/01/05 07:04:00;;;;;;;;;;;28.10;88.30;;;;;;5116908;28;20008;-71
2024/01/05 07:06:27;;;;;;;;;;;27.80;90.20;;;;;;5116581;28;20272;-68
2024/01/05 07:08:53;;;;;;;;;;;27.60;90.40;;;;;;5116861;28;19918;-70
2024/01/05 07:11:21;;;;;;;;;;;27.50;90.20;;;;;;5116595;28;19911;-73
2024/01/05 07:13:48;;;;;;;;;;;27.10;90.90;;;;;;5116628;28;20325;-67
2024/01/05 07:16:16;;;;;;;;;;;26.90;91.10;;;;;;5116483;28;19912;-69
2024/01/05 07:18:42;;;;;;;;;;;27.00;90.80;;;;;;5116523;28;19907;-65
2024/01/05 07:21:09;;;;;;;;;;;26.90;91.00;;;;;;5116711;28;19911;-67
2024/01/05 07:23:36;;;;;;;;;;;26.80;91.30;;;;;;5116562;28;20365;-66
2024/01/05 07:26:03;;;;;;;;;;;26.90;91.50;;;;;;5116473;28;19911;-66
2024/01/05 07:28:29;;;;;;;;;;;27.20;91.00;;;;;;5116365;28;20368;-65
2024/01/05 07:30:56;;;;;;;;;;;27.30;91.10;;;;;;5116276;28;19915;-65
2024/01/05 07:33:23;;;;;;;;;;;27.30;91.10;;;;;;5115924;28;20002;-67
2024/01/05 07:35:49;;;;;;;;;;;27.20;91.40;;;;;;5116398;28;19911;-67
2024/01/05 07:38:16;;;;;;;;;;;27.20;90.90;;;;;;5116150;28;20287;-66
2024/01/05 07:40:43;;;;;;;;;;;27.10;91.40;;;;;;5116219;28;19911;-66
2024/01/05 07:43:12;;;;;;;;;;;27.00;91.70;;;;;;5115835;28;19915;-66
2024/01/05 07:45:39;;;;;;;;;;;26.60;91.60;;;;;;5115994;28;19908;-65
2024/01/05 07:48:06;;;;;;;;;;;26.50;92.00;;;;;;5115843;28;19918;-68
2024/01/05 07:50:32;;;;;;;;;;;26.00;92.70;;;;;;5097598;28;19908;-65
2024/01/05 07:52:59;;;;;;;;;;;25.90;92.50;;;;;;5115663;28;19962;-65
2024/01/05 07:55:26;;;;;;;;;;;25.70;92.90;;;;;;5115944;28;20011;-65
2024/01/05 07:57:52;;;;;;;;;;;25.60;93.20;;;;;;5115981;28;19908;-67
2024/01/05 08:00:19;;;;;;;;;;;25.60;93.10;;;;;;5115512;28;19908;-67
2024/01/05 08:02:45;;;;;;;;;;;25.60;93.20;;;;;;5115566;28;19947;-66
2024/01/05 08:05:12;;;;;;;;;;;25.50;93.40;;;;;;5115890;28;20374;-66
2024/01/05 08:07:39;;;;;;;;;;;25.20;93.70;;;;;;5115509;28;20379;-66
2024/01/05 08:10:06;;;;;;;;;;;25.00;93.80;;;;;;5114636;28;19907;-64
2024/01/05 08:12:32;;;;;;;;;;;24.90;94.30;;;;;;5115316;28;20314;-64
2024/01/05 08:14:59;;;;;;;;;;;24.80;94.50;;;;;;5115541;28;19911;-65
2024/01/05 08:17:25;;;;;;;;;;;24.60;94.60;;;;;;5115464;28;19908;-66
2024/01/05 08:19:52;;;;;;;;;;;24.60;94.90;;;;;;5115298;28;19983;-67
2024/01/05 08:22:19;;;;;;;;;;;24.50;95.00;;;;;;5115299;28;19915;-65
2024/01/05 08:24:45;;;;;;;;;;;24.40;95.30;;;;;;5115400;28;20364;-67
2024/01/05 08:27:12;;;;;;;;;;;24.40;95.70;;;;;;5115202;28;19914;-65
2024/01/05 08:29:39;;;;;;;;;;;24.30;95.80;;;;;;5115334;28;19947;-66
2024/01/05 08:32:05;;;;;;;;;;;24.20;96.00;;;;;;5115178;28;19915;-65
2024/01/05 08:34:32;;;;;;;;;;;24.10;96.10;;;;;;5114955;28;20272;-65
2024/01/05 08:36:59;;;;;;;;;;;24.00;96.50;;;;;;5115068;28;19915;-65
2024/01/05 08:39:25;;;;;;;;;;;24.00;96.60;;;;;;5115062;28;19908;-68
2024/01/05 08:41:52;;;;;;;;;;;23.90;96.60;;;;;;5114861;28;20296;-66
2024/01/05 08:44:23;;;;;;;;;;;23.90;97.10;;;;;;5114934;28;19919;-66
2024/01/05 08:46:49;;;;;;;;;;;23.80;96.80;;;;;;5114963;28;19954;-67
2024/01/05 08:49:16;;;;;;;;;;;23.80;96.90;;;;;;5114814;28;19954;-66
2024/01/05 08:51:43;;;;;;;;;;;23.70;96.90;;;;;;5114843;28;19907;-71
2024/01/05 08:54:10;;;;;;;;;;;23.60;97.10;;;;;;5114568;28;19934;-66
2024/01/05 08:56:37;;;;;;;;;;;23.60;97.20;;;;;;5114772;28;19908;-66
2024/01/05 08:59:07;;;;;;;;;;;23.60;97.20;;;;;;5114538;28;20093;-65
2024/01/05 09:01:34;;;;;;;;;;;23.50;97.30;;;;;;5114511;28;19987;-68
2024/01/05 09:04:00;;;;;;;;;;;23.40;97.60;;;;;;5114529;28;19991;-65
2024/01/05 09:06:28;;;;;;;;;;;23.30;97.90;;;;;;5114208;28;19908;-65
2024/01/05 09:08:55;;;;;;;;;;;23.20;98.00;;;;;;5114424;28;19908;-66
2024/01/05 09:11:21;;;;;;;;;;;23.20;98.00;;;;;;5114265;28;19908;-67
2024/01/05 09:13:48;;;;;;;;;;;23.20;98.10;;;;;;5114360;28;19908;-67
2024/01/05 09:16:15;;;;;;;;;;;23.20;98.10;;;;;;5114380;28;19908;-64
2024/01/05 09:18:42;;;;;;;;;;;23.10;98.10;;;;;;5114261;28;19914;-66
2024/01/05 09:21:10;;;;;;;;;;;23.00;98.30;;;;;;5114247;28;19951;-65
2024/01/05 09:23:37;;;;;;;;;;;23.00;98.20;;;;;;5113836;28;19920;-65
2024/01/05 09:26:03;;;;;;;;;;;23.00;98.50;;;;;;5095525;28;19943;-69
2024/01/05 09:28:30;;;;;;;;;;;22.90;98.40;;;;;;5114005;28;19914;-68
2024/01/05 09:30:57;;;;;;;;;;;22.80;98.60;;;;;;5095589;28;19907;-70
2024/01/05 09:33:24;;;;;;;;;;;22.80;98.70;;;;;;5114143;28;20418;-68
2024/01/05 09:35:51;;;;;;;;;;;22.80;99.00;;;;;;5114032;28;19907;-69
2024/01/05 09:38:18;;;;;;;;;;;22.80;99.10;;;;;;5078493;28;20301;-69
2024/01/05 09:40:46;;;;;;;;;;;22.80;99.60;;;;;;5114009;28;19919;-72
2024/01/05 09:43:12;;;;;;;;;;;22.80;99.30;;;;;;5113828;28;20384;-68
2024/01/05 09:45:39;;;;;;;;;;;22.80;99.70;;;;;;5113981;28;19908;-67
2024/01/05 09:48:06;;;;;;;;;;;22.80;99.80;;;;;;5113786;28;19914;-70
2024/01/05 09:50:33;;;;;;;;;;;22.80;99.90;;;;;;5113774;28;19955;-71
2024/01/05 09:52:59;;;;;;;;;;;22.70;99.80;;;;;;5113633;28;19908;-67
2024/01/05 09:55:26;;;;;;;;;;;22.70;99.90;;;;;;5113746;28;20056;-71
2024/01/05 09:57:53;;;;;;;;;;;22.60;99.90;;;;;;5113706;28;19912;-71
2024/01/05 10:00:20;;;;;;;;;;;22.60;99.80;;;;;;5113615;28;19912;-68
2024/01/05 10:03:08;;;;;;;;;;;22.50;99.90;;;;;;5113270;28;20106;-70
2024/01/05 10:05:34;;;;;;;;;;;22.50;99.90;;;;;;5113138;28;19914;-71
2024/01/05 10:08:01;;;;;;;;;;;22.50;99.90;;;;;;5113101;28;19911;-67
2024/01/05 10:10:48;;;;;;;;;;;22.50;99.90;;;;;;5113324;28;19914;-71
2024/01/05 10:13:16;;;;;;;;;;;22.40;99.90;;;;;;5113578;28;20054;-71
2024/01/05 10:15:55;;;;;;;;;;;22.40;99.90;;;;;;5113379;28;19960;-69
2024/01/05 10:18:22;;;;;;;;;;;22.40;99.90;;;;;;5113211;28;20003;-70
2024/01/05 10:20:49;;;;;;;;;;;22.30;99.90;;;;;;5113331;28;20361;-70
2024/01/05 10:23:16;;;;;;;;;;;22.20;99.90;;;;;;5113119;28;19916;-71
2024/01/05 10:25:46;;;;;;;;;;;22.10;99.90;;;;;;5113368;28;19961;-74
2024/01/05 10:28:37;;;;;;;;;;;22.00;99.90;;;;;;5095248;28;20249;-72
2024/01/05 10:31:19;;;;;;;;;;;21.90;99.90;;;;;;5113313;28;20318;-70
2024/01/05 10:33:50;;;;;;;;;;;21.80;99.90;;;;;;5117333;28;19908;-74
2024/01/05 10:36:20;;;;;;;;;;;21.80;99.90;;;;;;5117252;28;19907;-73
2024/01/05 10:38:47;;;;;;;;;;;21.70;99.90;;;;;;5098947;28;20369;-74
2024/01/05 10:41:15;;;;;;;;;;;21.70;99.90;;;;;;5117303;28;19960;-72
2024/01/05 10:43:42;;;;;;;;;;;21.70;99.90;;;;;;5117196;28;19916;-72
2024/01/05 10:46:14;;;;;;;;;;;21.80;99.90;;;;;;5117345;28;19907;-73
2024/01/05 10:48:40;;;;;;;;;;;21.80;99.90;;;;;;5117192;28;19907;-73
2024/01/05 10:51:07;;;;;;;;;;;21.70;99.90;;;;;;5117375;28;19907;-73
2024/01/05 10:53:38;;;;;;;;;;;21.80;99.90;;;;;;5117173;28;19912;-73
2024/01/05 10:56:06;;;;;;;;;;;21.90;99.90;;;;;;5116797;28;19927;-71
2024/01/05 10:58:33;;;;;;;;;;;21.90;99.90;;;;;;5098637;28;19998;-66
2024/01/05 11:01:00;;;;;;;;;;;21.90;99.90;;;;;;5116992;28;19908;-68
2024/01/05 11:03:32;;;;;;;;;;;21.90;99.90;;;;;;5116764;28;19923;-72
2024/01/05 11:05:58;;;;;;;;;;;22.00;99.90;;;;;;5117562;28;19952;-71
2024/01/05 11:08:43;;;;;;;;;;;22.00;99.90;;;;;;5116943;28;19907;-65
2024/01/05 11:11:28;;;;;;;;;;;22.00;99.90;;;;;;5116907;28;19908;-67
2024/01/05 11:14:02;;;;;;;;;;;21.80;99.90;;;;;;5116646;28;20348;-66
2024/01/05 11:16:47;;;;;;;;;;;21.80;99.90;;;;;;5116819;28;19911;-66
2024/01/05 11:19:19;;;;;;;;;;;21.70;99.90;;;;;;5116537;28;19918;-74
2024/01/05 11:22:10;;;;;;;;;;;21.80;99.90;;;;;;5116348;28;19911;-71
2024/01/05 11:24:37;;;;;;;;;;;21.80;99.90;;;;;;5108556;28;19935;-71
2024/01/05 11:27:22;;;;;;;;;;;21.80;99.90;;;;;;5116431;28;20006;-66
2024/01/05 11:29:50;;;;;;;;;;;22.00;99.90;;;;;;5116479;28;19908;-67
2024/01/05 11:32:35;;;;;;;;;;;22.00;99.90;;;;;;5115930;28;19914;-68
2024/01/05 11:35:03;;;;;;;;;;;22.00;99.90;;;;;;5116448;28;19908;-67
2024/01/05 11:37:30;;;;;;;;;;;22.00;99.90;;;;;;5116443;28;19961;-66
2024/01/05 11:40:00;;;;;;;;;;;22.00;99.90;;;;;;5116231;28;19908;-65
2024/01/05 11:42:27;;;;;;;;;;;22.20;99.90;;;;;;5115956;28;19960;-68
2024/01/05 11:44:58;;;;;;;;;;;22.20;99.90;;;;;;5114884;28;19912;-68
2024/01/05 11:47:46;;;;;;;;;;;22.20;99.90;;;;;;5116268;28;19908;-66
2024/01/05 11:50:28;;;;;;;;;;;22.20;99.90;;;;;;5116220;28;19908;-69
2024/01/05 11:53:07;;;;;;;;;;;22.20;99.90;;;;;;5115805;28;19969;-64
2024/01/05 11:55:39;;;;;;;;;;;22.30;99.90;;;;;;5115876;28;19967;-65
2024/01/05 11:58:10;;;;;;;;;;;22.30;99.90;;;;;;5116284;28;19942;-66
2024/01/05 12:00:36;;;;;;;;;;;22.30;99.90;;;;;;5115954;28;19907;-67
2024/01/05 12:03:04;;;;;;;;;;;22.30;99.90;;;;;;5115604;28;19916;-68
2024/01/05 12:05:34;;;;;;;;;;;22.30;99.90;;;;;;5115996;28;19957;-66
2024/01/05 12:08:00;;;;;;;;;;;22.30;99.90;;;;;;5115874;28;19940;-67
2024/01/05 12:10:27;;;;;;;;;;;22.30;99.90;;;;;;5115695;28;20324;-70
2024/01/05 12:12:55;;;;;;;;;;;22.20;99.90;;;;;;5115528;28;20006;-66
2024/01/05 12:15:22;;;;;;;;;;;22.30;99.90;;;;;;5115296;28;19952;-66
2024/01/05 12:17:49;;;;;;;;;;;22.20;99.90;;;;;;5097075;28;19908;-65
2024/01/05 12:20:16;;;;;;;;;;;22.30;99.90;;;;;;5115478;28;19915;-67
2024/01/05 12:22:43;;;;;;;;;;;22.30;99.90;;;;;;5115224;28;20399;-68
2024/01/05 12:25:10;;;;;;;;;;;22.30;99.90;;;;;;5115422;28;19908;-72
2024/01/05 12:27:40;;;;;;;;;;;22.30;99.90;;;;;;5115181;28;19904;-68
2024/01/05 12:30:09;;;;;;;;;;;22.30;99.90;;;;;;5112390;28;20395;-69
2024/01/05 12:32:36;;;;;;;;;;;22.30;99.90;;;;;;5103797;28;19912;-67
2024/01/05 12:35:04;;;;;;;;;;;22.40;99.90;;;;;;5107343;27;19912;-70
2024/01/05 12:37:32;;;;;;;;;;;22.40;99.90;;;;;;5099372;27;20425;-70
2024/01/05 12:40:11;;;;;;;;;;;22.40;99.90;;;;;;5098388;28;19923;-71
2024/01/05 12:42:38;;;;;;;;;;;22.40;99.90;;;;;;5106509;28;20002;-67
2024/01/05 12:45:05;;;;;;;;;;;22.30;99.90;;;;;;5114864;28;19908;-71
2024/01/05 12:47:35;;;;;;;;;;;22.20;99.90;;;;;;5095263;28;19920;-69
2024/01/05 12:50:03;;;;;;;;;;;22.10;99.90;;;;;;5112104;27;19951;-65
2024/01/05 12:52:36;;;;;;;;;;;22.00;99.90;;;;;;5110603;27;19926;-67
2024/01/05 12:55:07;;;;;;;;;;;21.90;99.90;;;;;;5093620;28;19931;-71
2024/01/05 12:57:34;;;;;;;;;;;21.80;99.90;;;;;;5099850;27;20474;-69
2024/01/05 13:00:05;;;;;;;;;;;21.70;99.90;;;;;;5102679;27;19911;-72
2024/01/05 13:02:41;;;;;;;;;;;21.70;99.90;;;;;;5097891;28;19924;-70
2024/01/05 13:05:25;;;;;;;;;;;21.60;99.90;;;;;;5096841;27;20312;-72
2024/01/05 13:07:53;;;;;;;;;;;21.50;99.90;;;;;;5097384;28;20369;-65
2024/01/05 13:10:21;;;;;;;;;;;21.40;99.90;;;;;;5099002;28;19930;-68
2024/01/05 13:12:48;;;;;;;;;;;21.50;99.90;;;;;;5106014;28;19919;-70
2024/01/05 13:15:15;;;;;;;;;;;21.40;99.90;;;;;;5098313;28;20022;-70
2024/01/05 13:17:48;;;;;;;;;;;21.30;99.90;;;;;;5103068;27;20072;-67
2024/01/05 13:20:16;;;;;;;;;;;21.30;99.90;;;;;;5104908;28;19920;-67
2024/01/05 13:22:43;;;;;;;;;;;21.30;99.90;;;;;;5095530;28;19927;-72
2024/01/05 13:25:11;;;;;;;;;;;21.30;99.90;;;;;;5098587;28;20404;-71
2024/01/05 13:27:41;;;;;;;;;;;21.20;99.90;;;;;;5098325;27;19919;-72
2024/01/05 13:30:09;;;;;;;;;;;21.20;99.90;;;;;;5106173;27;19920;-69
2024/01/05 13:32:39;;;;;;;;;;;21.20;99.90;;;;;;5111243;27;19919;-72
2024/01/05 13:35:06;;;;;;;;;;;21.10;99.90;;;;;;5095457;28;19912;-68
2024/01/05 13:37:33;;;;;;;;;;;21.20;99.90;;;;;;5109321;28;20277;-65
2024/01/05 13:40:00;;;;;;;;;;;21.30;99.90;;;;;;5088490;28;19916;-68
2024/01/05 13:42:28;;;;;;;;;;;21.20;99.90;;;;;;5100743;27;20602;-69
2024/01/05 13:44:56;;;;;;;;;;;21.20;99.90;;;;;;5080080;27;19911;-71
2024/01/05 13:47:24;;;;;;;;;;;21.30;99.90;;;;;;5099516;27;19911;-69
2024/01/05 13:49:50;;;;;;;;;;;21.30;99.90;;;;;;5093995;28;19912;-69
2024/01/05 13:52:17;;;;;;;;;;;21.30;99.90;;;;;;5099073;27;19911;-71
2024/01/05 13:54:48;;;;;;;;;;;21.30;99.90;;;;;;5094510;28;19989;-65
2024/01/05 13:57:16;;;;;;;;;;;21.30;99.90;;;;;;5103405;28;19916;-65
2024/01/05 13:59:42;;;;;;;;;;;21.20;99.90;;;;;;5096311;28;19916;-72
2024/01/05 14:02:09;;;;;;;;;;;21.20;99.90;;;;;;5101761;28;20016;-72
2024/01/05 14:04:36;;;;;;;;;;;21.20;99.90;;;;;;5102221;28;19919;-72
2024/01/05 14:07:02;;;;;;;;;;;21.10;99.90;;;;;;5128921;27;19911;-66
2024/01/05 14:09:30;;;;;;;;;;;21.10;99.90;;;;;;5128978;27;20501;-68
2024/01/05 14:11:56;;;;;;;;;;;21.00;99.90;;;;;;5102398;28;19918;-71
2024/01/05 14:14:24;;;;;;;;;;;21.00;99.90;;;;;;5103883;28;19951;-70
2024/01/05 14:16:51;;;;;;;;;;;20.90;99.90;;;;;;5101724;28;19912;-72
2024/01/05 14:19:18;;;;;;;;;;;20.80;99.90;;;;;;5095804;28;19918;-71